<?xml version="1.0" encoding="UTF-8" standalone="no" ?>
<gpx xmlns="http://www.topografix.com/GPX/1/1" xmlns:xsi="http://www.w3.org/2001/XMLSchema-instance" xsi:schemaLocation="http://www.topografix.com/GPX/1/1 http://www.topografix.com/GPX/1/1/gpx.xsd" version="1.1" creator="VisuGPX - https://www.visugpx.com">
  <metadata>
    <name>reco entrainement tignes 2011</name>
    <desc><![CDATA[Parcours sur Tignes. ]]></desc>
  </metadata>
  <wpt lat="38.85555" lon="-94.79902">
    <ele>3.01</ele>
    <name><![CDATA[GARMIN]]></name>
  </wpt>
  <wpt lat="50.98288" lon="-1.4639">
    <ele>3.01</ele>
    <name><![CDATA[GRMEUR]]></name>
  </wpt>
  <wpt lat="25.06178" lon="121.64027">
    <ele>3.01</ele>
    <name><![CDATA[GRMTWN]]></name>
  </wpt>
  <trk>
    <name><![CDATA[ACTIVE LOG: 26 JUN 2011 10:49]]></name>
    <trkseg>
      <trkpt lat="45.49201" lon="6.92149">
        <ele>1922.29</ele>
        <time>2011-06-26T08:49:30Z</time>
      </trkpt>
      <trkpt lat="45.49197" lon="6.92148">
        <ele>1925.66</ele>
        <time>2011-06-26T08:49:38Z</time>
      </trkpt>
      <trkpt lat="45.49191" lon="6.92148">
        <ele>1927.1</ele>
        <time>2011-06-26T08:49:48Z</time>
      </trkpt>
      <trkpt lat="45.49185" lon="6.92148">
        <ele>1931.91</ele>
        <time>2011-06-26T08:49:57Z</time>
      </trkpt>
      <trkpt lat="45.49178" lon="6.92147">
        <ele>1934.79</ele>
        <time>2011-06-26T08:50:09Z</time>
      </trkpt>
      <trkpt lat="45.49178" lon="6.92147">
        <ele>1930.95</ele>
        <time>2011-06-26T08:50:10Z</time>
      </trkpt>
      <trkpt lat="45.49177" lon="6.92147">
        <ele>1934.31</ele>
        <time>2011-06-26T08:50:11Z</time>
      </trkpt>
      <trkpt lat="45.49171" lon="6.92148">
        <ele>1934.31</ele>
        <time>2011-06-26T08:50:22Z</time>
      </trkpt>
      <trkpt lat="45.49168" lon="6.92149">
        <ele>1938.16</ele>
        <time>2011-06-26T08:50:27Z</time>
      </trkpt>
      <trkpt lat="45.49163" lon="6.92154">
        <ele>1939.12</ele>
        <time>2011-06-26T08:50:33Z</time>
      </trkpt>
      <trkpt lat="45.49161" lon="6.92155">
        <ele>1938.64</ele>
        <time>2011-06-26T08:50:36Z</time>
      </trkpt>
      <trkpt lat="45.49154" lon="6.92163">
        <ele>1941.04</ele>
        <time>2011-06-26T08:50:47Z</time>
      </trkpt>
      <trkpt lat="45.49151" lon="6.92164">
        <ele>1942</ele>
        <time>2011-06-26T08:50:51Z</time>
      </trkpt>
      <trkpt lat="45.49143" lon="6.92171">
        <ele>1944.88</ele>
        <time>2011-06-26T08:51:05Z</time>
      </trkpt>
      <trkpt lat="45.49134" lon="6.92177">
        <ele>1948.73</ele>
        <time>2011-06-26T08:51:19Z</time>
      </trkpt>
      <trkpt lat="45.49128" lon="6.92184">
        <ele>1949.21</ele>
        <time>2011-06-26T08:51:29Z</time>
      </trkpt>
      <trkpt lat="45.49123" lon="6.92182">
        <ele>1951.61</ele>
        <time>2011-06-26T08:51:36Z</time>
      </trkpt>
      <trkpt lat="45.49117" lon="6.92187">
        <ele>1953.06</ele>
        <time>2011-06-26T08:51:47Z</time>
      </trkpt>
      <trkpt lat="45.49111" lon="6.92186">
        <ele>1954.98</ele>
        <time>2011-06-26T08:51:57Z</time>
      </trkpt>
      <trkpt lat="45.49109" lon="6.92192">
        <ele>1957.38</ele>
        <time>2011-06-26T08:52:03Z</time>
      </trkpt>
      <trkpt lat="45.49103" lon="6.92192">
        <ele>1958.34</ele>
        <time>2011-06-26T08:52:09Z</time>
      </trkpt>
      <trkpt lat="45.491" lon="6.92196">
        <ele>1959.3</ele>
        <time>2011-06-26T08:52:14Z</time>
      </trkpt>
      <trkpt lat="45.49095" lon="6.92203">
        <ele>1960.75</ele>
        <time>2011-06-26T08:52:21Z</time>
      </trkpt>
      <trkpt lat="45.49092" lon="6.92205">
        <ele>1962.67</ele>
        <time>2011-06-26T08:52:24Z</time>
      </trkpt>
      <trkpt lat="45.4909" lon="6.92209">
        <ele>1962.19</ele>
        <time>2011-06-26T08:52:40Z</time>
      </trkpt>
      <trkpt lat="45.49083" lon="6.92222">
        <ele>1965.55</ele>
        <time>2011-06-26T08:53:05Z</time>
      </trkpt>
      <trkpt lat="45.4908" lon="6.92229">
        <ele>1966.99</ele>
        <time>2011-06-26T08:53:11Z</time>
      </trkpt>
      <trkpt lat="45.49074" lon="6.92237">
        <ele>1969.88</ele>
        <time>2011-06-26T08:53:23Z</time>
      </trkpt>
      <trkpt lat="45.49067" lon="6.92243">
        <ele>1973.24</ele>
        <time>2011-06-26T08:53:34Z</time>
      </trkpt>
      <trkpt lat="45.49059" lon="6.92249">
        <ele>1975.65</ele>
        <time>2011-06-26T08:53:47Z</time>
      </trkpt>
      <trkpt lat="45.4905" lon="6.92248">
        <ele>1979.01</ele>
        <time>2011-06-26T08:54:00Z</time>
      </trkpt>
      <trkpt lat="45.49049" lon="6.92249">
        <ele>1979.01</ele>
        <time>2011-06-26T08:54:01Z</time>
      </trkpt>
      <trkpt lat="45.49041" lon="6.92248">
        <ele>1979.97</ele>
        <time>2011-06-26T08:54:11Z</time>
      </trkpt>
      <trkpt lat="45.49039" lon="6.92244">
        <ele>1981.9</ele>
        <time>2011-06-26T08:54:15Z</time>
      </trkpt>
      <trkpt lat="45.49037" lon="6.9224">
        <ele>1982.38</ele>
        <time>2011-06-26T08:54:18Z</time>
      </trkpt>
      <trkpt lat="45.49037" lon="6.92228">
        <ele>1984.3</ele>
        <time>2011-06-26T08:54:25Z</time>
      </trkpt>
      <trkpt lat="45.49035" lon="6.92205">
        <ele>1987.18</ele>
        <time>2011-06-26T08:54:40Z</time>
      </trkpt>
      <trkpt lat="45.49036" lon="6.92197">
        <ele>1990.55</ele>
        <time>2011-06-26T08:54:48Z</time>
      </trkpt>
      <trkpt lat="45.49038" lon="6.9219">
        <ele>1991.51</ele>
        <time>2011-06-26T08:54:54Z</time>
      </trkpt>
      <trkpt lat="45.49042" lon="6.92171">
        <ele>1993.43</ele>
        <time>2011-06-26T08:55:06Z</time>
      </trkpt>
      <trkpt lat="45.49046" lon="6.92159">
        <ele>1995.83</ele>
        <time>2011-06-26T08:55:16Z</time>
      </trkpt>
      <trkpt lat="45.49052" lon="6.92139">
        <ele>2000.16</ele>
        <time>2011-06-26T08:55:32Z</time>
      </trkpt>
      <trkpt lat="45.49053" lon="6.92135">
        <ele>2000.16</ele>
        <time>2011-06-26T08:55:35Z</time>
      </trkpt>
      <trkpt lat="45.49057" lon="6.92121">
        <ele>2003.04</ele>
        <time>2011-06-26T08:55:47Z</time>
      </trkpt>
      <trkpt lat="45.49058" lon="6.92119">
        <ele>2008.81</ele>
        <time>2011-06-26T08:55:50Z</time>
      </trkpt>
      <trkpt lat="45.49058" lon="6.92118">
        <ele>2002.56</ele>
        <time>2011-06-26T08:55:51Z</time>
      </trkpt>
      <trkpt lat="45.4906" lon="6.92115">
        <ele>2001.6</ele>
        <time>2011-06-26T08:55:54Z</time>
      </trkpt>
      <trkpt lat="45.49061" lon="6.92114">
        <ele>2005.45</ele>
        <time>2011-06-26T08:55:55Z</time>
      </trkpt>
      <trkpt lat="45.49063" lon="6.9211">
        <ele>2006.89</ele>
        <time>2011-06-26T08:56:00Z</time>
      </trkpt>
      <trkpt lat="45.49063" lon="6.92109">
        <ele>2004.01</ele>
        <time>2011-06-26T08:56:01Z</time>
      </trkpt>
      <trkpt lat="45.49064" lon="6.92101">
        <ele>2008.33</ele>
        <time>2011-06-26T08:56:07Z</time>
      </trkpt>
      <trkpt lat="45.49064" lon="6.921">
        <ele>2008.81</ele>
        <time>2011-06-26T08:56:08Z</time>
      </trkpt>
      <trkpt lat="45.49064" lon="6.92099">
        <ele>2004.49</ele>
        <time>2011-06-26T08:56:09Z</time>
      </trkpt>
      <trkpt lat="45.49064" lon="6.92098">
        <ele>2004.97</ele>
        <time>2011-06-26T08:56:10Z</time>
      </trkpt>
      <trkpt lat="45.49065" lon="6.92095">
        <ele>2009.29</ele>
        <time>2011-06-26T08:56:12Z</time>
      </trkpt>
      <trkpt lat="45.4907" lon="6.92081">
        <ele>2010.73</ele>
        <time>2011-06-26T08:56:27Z</time>
      </trkpt>
      <trkpt lat="45.49071" lon="6.92078">
        <ele>2009.77</ele>
        <time>2011-06-26T08:56:29Z</time>
      </trkpt>
      <trkpt lat="45.49074" lon="6.92072">
        <ele>2013.62</ele>
        <time>2011-06-26T08:56:33Z</time>
      </trkpt>
      <trkpt lat="45.49074" lon="6.9207">
        <ele>2010.73</ele>
        <time>2011-06-26T08:56:34Z</time>
      </trkpt>
      <trkpt lat="45.49079" lon="6.92063">
        <ele>2013.14</ele>
        <time>2011-06-26T08:56:39Z</time>
      </trkpt>
      <trkpt lat="45.49084" lon="6.92052">
        <ele>2014.1</ele>
        <time>2011-06-26T08:56:45Z</time>
      </trkpt>
      <trkpt lat="45.49091" lon="6.92041">
        <ele>2016.02</ele>
        <time>2011-06-26T08:56:55Z</time>
      </trkpt>
      <trkpt lat="45.49098" lon="6.92033">
        <ele>2017.94</ele>
        <time>2011-06-26T08:57:02Z</time>
      </trkpt>
      <trkpt lat="45.49108" lon="6.92025">
        <ele>2019.39</ele>
        <time>2011-06-26T08:57:11Z</time>
      </trkpt>
      <trkpt lat="45.49123" lon="6.92013">
        <ele>2022.75</ele>
        <time>2011-06-26T08:57:25Z</time>
      </trkpt>
      <trkpt lat="45.49124" lon="6.92012">
        <ele>2022.75</ele>
        <time>2011-06-26T08:57:26Z</time>
      </trkpt>
      <trkpt lat="45.49133" lon="6.92006">
        <ele>2025.64</ele>
        <time>2011-06-26T08:57:35Z</time>
      </trkpt>
      <trkpt lat="45.49136" lon="6.92003">
        <ele>2025.64</ele>
        <time>2011-06-26T08:57:38Z</time>
      </trkpt>
      <trkpt lat="45.4914" lon="6.92">
        <ele>2026.6</ele>
        <time>2011-06-26T08:57:42Z</time>
      </trkpt>
      <trkpt lat="45.49147" lon="6.91996">
        <ele>2027.56</ele>
        <time>2011-06-26T08:57:48Z</time>
      </trkpt>
      <trkpt lat="45.49156" lon="6.91991">
        <ele>2029.48</ele>
        <time>2011-06-26T08:57:56Z</time>
      </trkpt>
      <trkpt lat="45.49168" lon="6.91983">
        <ele>2032.36</ele>
        <time>2011-06-26T08:58:07Z</time>
      </trkpt>
      <trkpt lat="45.49173" lon="6.91981">
        <ele>2032.84</ele>
        <time>2011-06-26T08:58:12Z</time>
      </trkpt>
      <trkpt lat="45.4918" lon="6.91977">
        <ele>2034.29</ele>
        <time>2011-06-26T08:58:19Z</time>
      </trkpt>
      <trkpt lat="45.49185" lon="6.91973">
        <ele>2034.29</ele>
        <time>2011-06-26T08:58:23Z</time>
      </trkpt>
      <trkpt lat="45.49187" lon="6.91971">
        <ele>2037.17</ele>
        <time>2011-06-26T08:58:25Z</time>
      </trkpt>
      <trkpt lat="45.492" lon="6.91957">
        <ele>2039.57</ele>
        <time>2011-06-26T08:58:39Z</time>
      </trkpt>
      <trkpt lat="45.49201" lon="6.91956">
        <ele>2038.61</ele>
        <time>2011-06-26T08:58:40Z</time>
      </trkpt>
      <trkpt lat="45.49205" lon="6.91948">
        <ele>2040.54</ele>
        <time>2011-06-26T08:58:45Z</time>
      </trkpt>
      <trkpt lat="45.4922" lon="6.91935">
        <ele>2042.46</ele>
        <time>2011-06-26T08:58:58Z</time>
      </trkpt>
      <trkpt lat="45.49225" lon="6.91929">
        <ele>2043.42</ele>
        <time>2011-06-26T08:59:04Z</time>
      </trkpt>
      <trkpt lat="45.49237" lon="6.91914">
        <ele>2046.3</ele>
        <time>2011-06-26T08:59:16Z</time>
      </trkpt>
      <trkpt lat="45.49239" lon="6.91911">
        <ele>2046.78</ele>
        <time>2011-06-26T08:59:18Z</time>
      </trkpt>
      <trkpt lat="45.49243" lon="6.91904">
        <ele>2047.26</ele>
        <time>2011-06-26T08:59:23Z</time>
      </trkpt>
      <trkpt lat="45.49257" lon="6.91879">
        <ele>2050.15</ele>
        <time>2011-06-26T08:59:39Z</time>
      </trkpt>
      <trkpt lat="45.49274" lon="6.91858">
        <ele>2050.63</ele>
        <time>2011-06-26T08:59:54Z</time>
      </trkpt>
      <trkpt lat="45.49282" lon="6.91846">
        <ele>2053.99</ele>
        <time>2011-06-26T09:00:02Z</time>
      </trkpt>
      <trkpt lat="45.49288" lon="6.91838">
        <ele>2053.99</ele>
        <time>2011-06-26T09:00:07Z</time>
      </trkpt>
      <trkpt lat="45.49305" lon="6.91822">
        <ele>2055.44</ele>
        <time>2011-06-26T09:00:21Z</time>
      </trkpt>
      <trkpt lat="45.49312" lon="6.91809">
        <ele>2056.88</ele>
        <time>2011-06-26T09:00:28Z</time>
      </trkpt>
      <trkpt lat="45.49318" lon="6.91793">
        <ele>2058.32</ele>
        <time>2011-06-26T09:00:36Z</time>
      </trkpt>
      <trkpt lat="45.49325" lon="6.91778">
        <ele>2059.76</ele>
        <time>2011-06-26T09:00:46Z</time>
      </trkpt>
      <trkpt lat="45.49334" lon="6.91743">
        <ele>2063.61</ele>
        <time>2011-06-26T09:01:05Z</time>
      </trkpt>
      <trkpt lat="45.49331" lon="6.91728">
        <ele>2066.97</ele>
        <time>2011-06-26T09:01:17Z</time>
      </trkpt>
      <trkpt lat="45.49332" lon="6.91713">
        <ele>2069.38</ele>
        <time>2011-06-26T09:01:30Z</time>
      </trkpt>
      <trkpt lat="45.49332" lon="6.91703">
        <ele>2071.78</ele>
        <time>2011-06-26T09:01:39Z</time>
      </trkpt>
      <trkpt lat="45.49338" lon="6.91683">
        <ele>2074.66</ele>
        <time>2011-06-26T09:01:55Z</time>
      </trkpt>
      <trkpt lat="45.49342" lon="6.91671">
        <ele>2076.1</ele>
        <time>2011-06-26T09:02:04Z</time>
      </trkpt>
      <trkpt lat="45.49345" lon="6.91655">
        <ele>2079.95</ele>
        <time>2011-06-26T09:02:16Z</time>
      </trkpt>
      <trkpt lat="45.49347" lon="6.91645">
        <ele>2081.39</ele>
        <time>2011-06-26T09:02:24Z</time>
      </trkpt>
      <trkpt lat="45.49349" lon="6.91641">
        <ele>2082.35</ele>
        <time>2011-06-26T09:02:29Z</time>
      </trkpt>
      <trkpt lat="45.49351" lon="6.91638">
        <ele>2083.79</ele>
        <time>2011-06-26T09:02:32Z</time>
      </trkpt>
      <trkpt lat="45.49357" lon="6.91625">
        <ele>2087.16</ele>
        <time>2011-06-26T09:02:44Z</time>
      </trkpt>
      <trkpt lat="45.49358" lon="6.91624">
        <ele>2086.2</ele>
        <time>2011-06-26T09:02:45Z</time>
      </trkpt>
      <trkpt lat="45.49361" lon="6.9162">
        <ele>2087.64</ele>
        <time>2011-06-26T09:02:49Z</time>
      </trkpt>
      <trkpt lat="45.49363" lon="6.91613">
        <ele>2089.08</ele>
        <time>2011-06-26T09:02:55Z</time>
      </trkpt>
      <trkpt lat="45.49361" lon="6.91594">
        <ele>2091.49</ele>
        <time>2011-06-26T09:03:10Z</time>
      </trkpt>
      <trkpt lat="45.49359" lon="6.91593">
        <ele>2091.97</ele>
        <time>2011-06-26T09:03:13Z</time>
      </trkpt>
      <trkpt lat="45.49346" lon="6.91592">
        <ele>2095.81</ele>
        <time>2011-06-26T09:03:27Z</time>
      </trkpt>
      <trkpt lat="45.49342" lon="6.91593">
        <ele>2096.77</ele>
        <time>2011-06-26T09:03:31Z</time>
      </trkpt>
      <trkpt lat="45.49335" lon="6.91596">
        <ele>2099.18</ele>
        <time>2011-06-26T09:03:38Z</time>
      </trkpt>
      <trkpt lat="45.49331" lon="6.91599">
        <ele>2099.18</ele>
        <time>2011-06-26T09:03:42Z</time>
      </trkpt>
      <trkpt lat="45.49321" lon="6.91599">
        <ele>2102.54</ele>
        <time>2011-06-26T09:03:52Z</time>
      </trkpt>
      <trkpt lat="45.49311" lon="6.91597">
        <ele>2105.91</ele>
        <time>2011-06-26T09:04:03Z</time>
      </trkpt>
      <trkpt lat="45.49299" lon="6.91585">
        <ele>2108.31</ele>
        <time>2011-06-26T09:04:17Z</time>
      </trkpt>
      <trkpt lat="45.49296" lon="6.91573">
        <ele>2110.23</ele>
        <time>2011-06-26T09:04:26Z</time>
      </trkpt>
      <trkpt lat="45.49296" lon="6.91559">
        <ele>2113.6</ele>
        <time>2011-06-26T09:04:36Z</time>
      </trkpt>
      <trkpt lat="45.49297" lon="6.91548">
        <ele>2114.08</ele>
        <time>2011-06-26T09:04:44Z</time>
      </trkpt>
      <trkpt lat="45.49295" lon="6.91523">
        <ele>2117.44</ele>
        <time>2011-06-26T09:05:00Z</time>
      </trkpt>
      <trkpt lat="45.4929" lon="6.91512">
        <ele>2119.84</ele>
        <time>2011-06-26T09:05:10Z</time>
      </trkpt>
      <trkpt lat="45.49283" lon="6.91511">
        <ele>2122.25</ele>
        <time>2011-06-26T09:05:17Z</time>
      </trkpt>
      <trkpt lat="45.49273" lon="6.91508">
        <ele>2125.13</ele>
        <time>2011-06-26T09:05:28Z</time>
      </trkpt>
      <trkpt lat="45.49267" lon="6.91502">
        <ele>2126.09</ele>
        <time>2011-06-26T09:05:35Z</time>
      </trkpt>
      <trkpt lat="45.49255" lon="6.91497">
        <ele>2129.46</ele>
        <time>2011-06-26T09:05:47Z</time>
      </trkpt>
      <trkpt lat="45.49241" lon="6.91489">
        <ele>2130.42</ele>
        <time>2011-06-26T09:06:02Z</time>
      </trkpt>
      <trkpt lat="45.49234" lon="6.91485">
        <ele>2132.34</ele>
        <time>2011-06-26T09:06:09Z</time>
      </trkpt>
      <trkpt lat="45.49211" lon="6.91471">
        <ele>2135.23</ele>
        <time>2011-06-26T09:06:27Z</time>
      </trkpt>
      <trkpt lat="45.49189" lon="6.91454">
        <ele>2137.15</ele>
        <time>2011-06-26T09:06:44Z</time>
      </trkpt>
      <trkpt lat="45.49181" lon="6.91447">
        <ele>2139.07</ele>
        <time>2011-06-26T09:06:49Z</time>
      </trkpt>
      <trkpt lat="45.49161" lon="6.91434">
        <ele>2141.47</ele>
        <time>2011-06-26T09:07:00Z</time>
      </trkpt>
      <trkpt lat="45.49142" lon="6.91421">
        <ele>2144.84</ele>
        <time>2011-06-26T09:07:11Z</time>
      </trkpt>
      <trkpt lat="45.49136" lon="6.91418">
        <ele>2145.32</ele>
        <time>2011-06-26T09:07:16Z</time>
      </trkpt>
      <trkpt lat="45.49127" lon="6.91413">
        <ele>2147.72</ele>
        <time>2011-06-26T09:07:23Z</time>
      </trkpt>
      <trkpt lat="45.4911" lon="6.91403">
        <ele>2149.16</ele>
        <time>2011-06-26T09:07:37Z</time>
      </trkpt>
      <trkpt lat="45.49098" lon="6.914">
        <ele>2150.13</ele>
        <time>2011-06-26T09:07:52Z</time>
      </trkpt>
      <trkpt lat="45.4908" lon="6.91396">
        <ele>2152.53</ele>
        <time>2011-06-26T09:08:08Z</time>
      </trkpt>
      <trkpt lat="45.49059" lon="6.91384">
        <ele>2152.53</ele>
        <time>2011-06-26T09:08:24Z</time>
      </trkpt>
      <trkpt lat="45.49041" lon="6.91381">
        <ele>2153.49</ele>
        <time>2011-06-26T09:08:37Z</time>
      </trkpt>
      <trkpt lat="45.49029" lon="6.91379">
        <ele>2153.49</ele>
        <time>2011-06-26T09:08:45Z</time>
      </trkpt>
      <trkpt lat="45.49002" lon="6.91385">
        <ele>2153.97</ele>
        <time>2011-06-26T09:09:04Z</time>
      </trkpt>
      <trkpt lat="45.48987" lon="6.91391">
        <ele>2153.01</ele>
        <time>2011-06-26T09:09:14Z</time>
      </trkpt>
      <trkpt lat="45.48962" lon="6.91408">
        <ele>2153.01</ele>
        <time>2011-06-26T09:09:25Z</time>
      </trkpt>
      <trkpt lat="45.48944" lon="6.91397">
        <ele>2152.53</ele>
        <time>2011-06-26T09:09:36Z</time>
      </trkpt>
      <trkpt lat="45.48924" lon="6.9138">
        <ele>2154.93</ele>
        <time>2011-06-26T09:09:53Z</time>
      </trkpt>
      <trkpt lat="45.48923" lon="6.91379">
        <ele>2155.89</ele>
        <time>2011-06-26T09:09:54Z</time>
      </trkpt>
      <trkpt lat="45.48911" lon="6.91357">
        <ele>2157.82</ele>
        <time>2011-06-26T09:10:09Z</time>
      </trkpt>
      <trkpt lat="45.4891" lon="6.9135">
        <ele>2158.78</ele>
        <time>2011-06-26T09:10:13Z</time>
      </trkpt>
      <trkpt lat="45.48908" lon="6.91339">
        <ele>2159.74</ele>
        <time>2011-06-26T09:10:20Z</time>
      </trkpt>
      <trkpt lat="45.489" lon="6.91313">
        <ele>2161.66</ele>
        <time>2011-06-26T09:10:37Z</time>
      </trkpt>
      <trkpt lat="45.48897" lon="6.91307">
        <ele>2161.66</ele>
        <time>2011-06-26T09:10:41Z</time>
      </trkpt>
      <trkpt lat="45.48887" lon="6.91297">
        <ele>2163.58</ele>
        <time>2011-06-26T09:10:52Z</time>
      </trkpt>
      <trkpt lat="45.48875" lon="6.91291">
        <ele>2166.47</ele>
        <time>2011-06-26T09:11:05Z</time>
      </trkpt>
      <trkpt lat="45.48869" lon="6.91288">
        <ele>2168.39</ele>
        <time>2011-06-26T09:11:13Z</time>
      </trkpt>
      <trkpt lat="45.48857" lon="6.91283">
        <ele>2171.27</ele>
        <time>2011-06-26T09:11:28Z</time>
      </trkpt>
      <trkpt lat="45.48849" lon="6.91277">
        <ele>2173.2</ele>
        <time>2011-06-26T09:11:40Z</time>
      </trkpt>
      <trkpt lat="45.4884" lon="6.91273">
        <ele>2175.6</ele>
        <time>2011-06-26T09:11:53Z</time>
      </trkpt>
      <trkpt lat="45.48832" lon="6.91267">
        <ele>2178.97</ele>
        <time>2011-06-26T09:12:04Z</time>
      </trkpt>
      <trkpt lat="45.48831" lon="6.91266">
        <ele>2178.97</ele>
        <time>2011-06-26T09:12:05Z</time>
      </trkpt>
      <trkpt lat="45.48829" lon="6.91264">
        <ele>2179.45</ele>
        <time>2011-06-26T09:12:08Z</time>
      </trkpt>
      <trkpt lat="45.48828" lon="6.91259">
        <ele>2179.45</ele>
        <time>2011-06-26T09:12:12Z</time>
      </trkpt>
      <trkpt lat="45.48818" lon="6.91253">
        <ele>2182.33</ele>
        <time>2011-06-26T09:12:24Z</time>
      </trkpt>
      <trkpt lat="45.48814" lon="6.91253">
        <ele>2182.81</ele>
        <time>2011-06-26T09:12:28Z</time>
      </trkpt>
      <trkpt lat="45.48806" lon="6.91251">
        <ele>2184.25</ele>
        <time>2011-06-26T09:12:40Z</time>
      </trkpt>
      <trkpt lat="45.48805" lon="6.91251">
        <ele>2185.69</ele>
        <time>2011-06-26T09:12:41Z</time>
      </trkpt>
      <trkpt lat="45.48796" lon="6.91246">
        <ele>2188.1</ele>
        <time>2011-06-26T09:12:53Z</time>
      </trkpt>
      <trkpt lat="45.48791" lon="6.91248">
        <ele>2188.1</ele>
        <time>2011-06-26T09:12:58Z</time>
      </trkpt>
      <trkpt lat="45.48784" lon="6.91245">
        <ele>2191.46</ele>
        <time>2011-06-26T09:13:07Z</time>
      </trkpt>
      <trkpt lat="45.48777" lon="6.91233">
        <ele>2194.35</ele>
        <time>2011-06-26T09:13:20Z</time>
      </trkpt>
      <trkpt lat="45.48772" lon="6.91229">
        <ele>2196.75</ele>
        <time>2011-06-26T09:13:28Z</time>
      </trkpt>
      <trkpt lat="45.48766" lon="6.91223">
        <ele>2200.59</ele>
        <time>2011-06-26T09:13:39Z</time>
      </trkpt>
      <trkpt lat="45.48766" lon="6.91223">
        <ele>2200.11</ele>
        <time>2011-06-26T09:13:40Z</time>
      </trkpt>
      <trkpt lat="45.48762" lon="6.91217">
        <ele>2201.08</ele>
        <time>2011-06-26T09:13:47Z</time>
      </trkpt>
      <trkpt lat="45.48757" lon="6.91212">
        <ele>2203.48</ele>
        <time>2011-06-26T09:13:57Z</time>
      </trkpt>
      <trkpt lat="45.48753" lon="6.91208">
        <ele>2205.4</ele>
        <time>2011-06-26T09:14:07Z</time>
      </trkpt>
      <trkpt lat="45.48746" lon="6.91202">
        <ele>2208.77</ele>
        <time>2011-06-26T09:14:20Z</time>
      </trkpt>
      <trkpt lat="45.48741" lon="6.912">
        <ele>2210.21</ele>
        <time>2011-06-26T09:14:28Z</time>
      </trkpt>
      <trkpt lat="45.48724" lon="6.91195">
        <ele>2212.61</ele>
        <time>2011-06-26T09:14:45Z</time>
      </trkpt>
      <trkpt lat="45.48703" lon="6.91186">
        <ele>2214.05</ele>
        <time>2011-06-26T09:15:04Z</time>
      </trkpt>
      <trkpt lat="45.48693" lon="6.9118">
        <ele>2215.98</ele>
        <time>2011-06-26T09:15:14Z</time>
      </trkpt>
      <trkpt lat="45.4869" lon="6.91179">
        <ele>2215.98</ele>
        <time>2011-06-26T09:15:17Z</time>
      </trkpt>
      <trkpt lat="45.48677" lon="6.91179">
        <ele>2219.34</ele>
        <time>2011-06-26T09:15:29Z</time>
      </trkpt>
      <trkpt lat="45.4867" lon="6.91177">
        <ele>2220.3</ele>
        <time>2011-06-26T09:15:36Z</time>
      </trkpt>
      <trkpt lat="45.48663" lon="6.91176">
        <ele>2222.22</ele>
        <time>2011-06-26T09:15:43Z</time>
      </trkpt>
      <trkpt lat="45.48653" lon="6.91175">
        <ele>2224.63</ele>
        <time>2011-06-26T09:15:53Z</time>
      </trkpt>
      <trkpt lat="45.48641" lon="6.91169">
        <ele>2228.47</ele>
        <time>2011-06-26T09:16:09Z</time>
      </trkpt>
      <trkpt lat="45.4864" lon="6.91169">
        <ele>2228.47</ele>
        <time>2011-06-26T09:16:10Z</time>
      </trkpt>
      <trkpt lat="45.48638" lon="6.91167">
        <ele>2228.47</ele>
        <time>2011-06-26T09:16:13Z</time>
      </trkpt>
      <trkpt lat="45.48636" lon="6.91164">
        <ele>2228.47</ele>
        <time>2011-06-26T09:16:22Z</time>
      </trkpt>
      <trkpt lat="45.48633" lon="6.91162">
        <ele>2229.92</ele>
        <time>2011-06-26T09:16:27Z</time>
      </trkpt>
      <trkpt lat="45.48625" lon="6.91161">
        <ele>2233.28</ele>
        <time>2011-06-26T09:16:37Z</time>
      </trkpt>
      <trkpt lat="45.4862" lon="6.91155">
        <ele>2233.76</ele>
        <time>2011-06-26T09:16:46Z</time>
      </trkpt>
      <trkpt lat="45.48618" lon="6.91154">
        <ele>2234.72</ele>
        <time>2011-06-26T09:16:49Z</time>
      </trkpt>
      <trkpt lat="45.48616" lon="6.91153">
        <ele>2235.2</ele>
        <time>2011-06-26T09:16:51Z</time>
      </trkpt>
      <trkpt lat="45.48613" lon="6.91153">
        <ele>2235.68</ele>
        <time>2011-06-26T09:16:55Z</time>
      </trkpt>
      <trkpt lat="45.48603" lon="6.9115">
        <ele>2238.57</ele>
        <time>2011-06-26T09:17:06Z</time>
      </trkpt>
      <trkpt lat="45.48593" lon="6.9115">
        <ele>2241.93</ele>
        <time>2011-06-26T09:17:19Z</time>
      </trkpt>
      <trkpt lat="45.48586" lon="6.91149">
        <ele>2243.85</ele>
        <time>2011-06-26T09:17:28Z</time>
      </trkpt>
      <trkpt lat="45.48578" lon="6.91145">
        <ele>2246.74</ele>
        <time>2011-06-26T09:17:38Z</time>
      </trkpt>
      <trkpt lat="45.48577" lon="6.91145">
        <ele>2245.78</ele>
        <time>2011-06-26T09:17:39Z</time>
      </trkpt>
      <trkpt lat="45.48567" lon="6.91144">
        <ele>2248.66</ele>
        <time>2011-06-26T09:17:50Z</time>
      </trkpt>
      <trkpt lat="45.48562" lon="6.91144">
        <ele>2248.66</ele>
        <time>2011-06-26T09:17:56Z</time>
      </trkpt>
      <trkpt lat="45.4856" lon="6.91144">
        <ele>2250.1</ele>
        <time>2011-06-26T09:18:00Z</time>
      </trkpt>
      <trkpt lat="45.48555" lon="6.91141">
        <ele>2252.03</ele>
        <time>2011-06-26T09:18:06Z</time>
      </trkpt>
      <trkpt lat="45.48545" lon="6.91141">
        <ele>2254.43</ele>
        <time>2011-06-26T09:18:21Z</time>
      </trkpt>
      <trkpt lat="45.4854" lon="6.91139">
        <ele>2257.31</ele>
        <time>2011-06-26T09:18:29Z</time>
      </trkpt>
      <trkpt lat="45.48533" lon="6.9114">
        <ele>2261.16</ele>
        <time>2011-06-26T09:18:40Z</time>
      </trkpt>
      <trkpt lat="45.4852" lon="6.91143">
        <ele>2263.56</ele>
        <time>2011-06-26T09:18:58Z</time>
      </trkpt>
      <trkpt lat="45.48515" lon="6.91144">
        <ele>2263.56</ele>
        <time>2011-06-26T09:19:06Z</time>
      </trkpt>
      <trkpt lat="45.48508" lon="6.91146">
        <ele>2267.89</ele>
        <time>2011-06-26T09:19:15Z</time>
      </trkpt>
      <trkpt lat="45.48502" lon="6.91149">
        <ele>2269.33</ele>
        <time>2011-06-26T09:19:23Z</time>
      </trkpt>
      <trkpt lat="45.48494" lon="6.91156">
        <ele>2272.21</ele>
        <time>2011-06-26T09:19:35Z</time>
      </trkpt>
      <trkpt lat="45.4849" lon="6.9116">
        <ele>2271.73</ele>
        <time>2011-06-26T09:19:41Z</time>
      </trkpt>
      <trkpt lat="45.48489" lon="6.91162">
        <ele>2273.17</ele>
        <time>2011-06-26T09:19:43Z</time>
      </trkpt>
      <trkpt lat="45.48486" lon="6.91164">
        <ele>2273.66</ele>
        <time>2011-06-26T09:19:52Z</time>
      </trkpt>
      <trkpt lat="45.48486" lon="6.91163">
        <ele>2274.14</ele>
        <time>2011-06-26T09:19:54Z</time>
      </trkpt>
      <trkpt lat="45.48483" lon="6.91154">
        <ele>2276.06</ele>
        <time>2011-06-26T09:20:00Z</time>
      </trkpt>
      <trkpt lat="45.48479" lon="6.91148">
        <ele>2277.5</ele>
        <time>2011-06-26T09:20:06Z</time>
      </trkpt>
      <trkpt lat="45.48477" lon="6.91151">
        <ele>2278.46</ele>
        <time>2011-06-26T09:20:11Z</time>
      </trkpt>
      <trkpt lat="45.48472" lon="6.9115">
        <ele>2279.9</ele>
        <time>2011-06-26T09:20:17Z</time>
      </trkpt>
      <trkpt lat="45.48466" lon="6.91142">
        <ele>2281.35</ele>
        <time>2011-06-26T09:20:28Z</time>
      </trkpt>
      <trkpt lat="45.48465" lon="6.91141">
        <ele>2282.79</ele>
        <time>2011-06-26T09:20:30Z</time>
      </trkpt>
      <trkpt lat="45.48464" lon="6.91139">
        <ele>2281.35</ele>
        <time>2011-06-26T09:20:32Z</time>
      </trkpt>
      <trkpt lat="45.48461" lon="6.91138">
        <ele>2284.71</ele>
        <time>2011-06-26T09:20:37Z</time>
      </trkpt>
      <trkpt lat="45.48461" lon="6.91139">
        <ele>2284.71</ele>
        <time>2011-06-26T09:20:38Z</time>
      </trkpt>
      <trkpt lat="45.48459" lon="6.9114">
        <ele>2282.79</ele>
        <time>2011-06-26T09:20:40Z</time>
      </trkpt>
      <trkpt lat="45.48459" lon="6.91141">
        <ele>2286.63</ele>
        <time>2011-06-26T09:20:41Z</time>
      </trkpt>
      <trkpt lat="45.48458" lon="6.91143">
        <ele>2285.67</ele>
        <time>2011-06-26T09:20:42Z</time>
      </trkpt>
      <trkpt lat="45.48456" lon="6.91148">
        <ele>2289.52</ele>
        <time>2011-06-26T09:20:49Z</time>
      </trkpt>
      <trkpt lat="45.48456" lon="6.91147">
        <ele>2285.67</ele>
        <time>2011-06-26T09:20:50Z</time>
      </trkpt>
      <trkpt lat="45.48454" lon="6.91146">
        <ele>2289.52</ele>
        <time>2011-06-26T09:20:52Z</time>
      </trkpt>
      <trkpt lat="45.48454" lon="6.91145">
        <ele>2288.08</ele>
        <time>2011-06-26T09:20:53Z</time>
      </trkpt>
      <trkpt lat="45.48449" lon="6.91141">
        <ele>2290.96</ele>
        <time>2011-06-26T09:21:00Z</time>
      </trkpt>
      <trkpt lat="45.48443" lon="6.91144">
        <ele>2291.44</ele>
        <time>2011-06-26T09:21:05Z</time>
      </trkpt>
      <trkpt lat="45.48441" lon="6.91148">
        <ele>2293.36</ele>
        <time>2011-06-26T09:21:11Z</time>
      </trkpt>
      <trkpt lat="45.48441" lon="6.91147">
        <ele>2290</ele>
        <time>2011-06-26T09:21:12Z</time>
      </trkpt>
      <trkpt lat="45.48441" lon="6.91146">
        <ele>2293.36</ele>
        <time>2011-06-26T09:21:14Z</time>
      </trkpt>
      <trkpt lat="45.4844" lon="6.91144">
        <ele>2290.48</ele>
        <time>2011-06-26T09:21:16Z</time>
      </trkpt>
      <trkpt lat="45.4844" lon="6.91144">
        <ele>2294.8</ele>
        <time>2011-06-26T09:21:17Z</time>
      </trkpt>
      <trkpt lat="45.4844" lon="6.91143">
        <ele>2294.32</ele>
        <time>2011-06-26T09:21:18Z</time>
      </trkpt>
      <trkpt lat="45.48436" lon="6.91145">
        <ele>2296.73</ele>
        <time>2011-06-26T09:21:26Z</time>
      </trkpt>
      <trkpt lat="45.48428" lon="6.9114">
        <ele>2299.61</ele>
        <time>2011-06-26T09:21:39Z</time>
      </trkpt>
      <trkpt lat="45.48426" lon="6.91143">
        <ele>2299.13</ele>
        <time>2011-06-26T09:21:43Z</time>
      </trkpt>
      <trkpt lat="45.48424" lon="6.91144">
        <ele>2300.09</ele>
        <time>2011-06-26T09:21:45Z</time>
      </trkpt>
      <trkpt lat="45.48422" lon="6.9114">
        <ele>2301.05</ele>
        <time>2011-06-26T09:21:50Z</time>
      </trkpt>
      <trkpt lat="45.4842" lon="6.91136">
        <ele>2302.98</ele>
        <time>2011-06-26T09:21:54Z</time>
      </trkpt>
      <trkpt lat="45.48413" lon="6.9114">
        <ele>2305.86</ele>
        <time>2011-06-26T09:22:06Z</time>
      </trkpt>
      <trkpt lat="45.48407" lon="6.91124">
        <ele>2308.26</ele>
        <time>2011-06-26T09:22:21Z</time>
      </trkpt>
      <trkpt lat="45.48402" lon="6.91116">
        <ele>2310.19</ele>
        <time>2011-06-26T09:22:31Z</time>
      </trkpt>
      <trkpt lat="45.48393" lon="6.91124">
        <ele>2313.55</ele>
        <time>2011-06-26T09:22:43Z</time>
      </trkpt>
      <trkpt lat="45.48389" lon="6.91126">
        <ele>2315.47</ele>
        <time>2011-06-26T09:22:48Z</time>
      </trkpt>
      <trkpt lat="45.48385" lon="6.91124">
        <ele>2315.47</ele>
        <time>2011-06-26T09:22:52Z</time>
      </trkpt>
      <trkpt lat="45.48384" lon="6.91116">
        <ele>2317.88</ele>
        <time>2011-06-26T09:22:58Z</time>
      </trkpt>
      <trkpt lat="45.48381" lon="6.91102">
        <ele>2320.76</ele>
        <time>2011-06-26T09:23:08Z</time>
      </trkpt>
      <trkpt lat="45.48382" lon="6.91093">
        <ele>2321.24</ele>
        <time>2011-06-26T09:23:15Z</time>
      </trkpt>
      <trkpt lat="45.48381" lon="6.91092">
        <ele>2320.28</ele>
        <time>2011-06-26T09:23:17Z</time>
      </trkpt>
      <trkpt lat="45.48377" lon="6.91093">
        <ele>2322.2</ele>
        <time>2011-06-26T09:23:21Z</time>
      </trkpt>
      <trkpt lat="45.48376" lon="6.91093">
        <ele>2323.16</ele>
        <time>2011-06-26T09:23:22Z</time>
      </trkpt>
      <trkpt lat="45.48373" lon="6.91091">
        <ele>2322.68</ele>
        <time>2011-06-26T09:23:26Z</time>
      </trkpt>
      <trkpt lat="45.48365" lon="6.9109">
        <ele>2326.53</ele>
        <time>2011-06-26T09:23:37Z</time>
      </trkpt>
      <trkpt lat="45.48363" lon="6.91088">
        <ele>2327.97</ele>
        <time>2011-06-26T09:23:40Z</time>
      </trkpt>
      <trkpt lat="45.48363" lon="6.91083">
        <ele>2328.93</ele>
        <time>2011-06-26T09:23:44Z</time>
      </trkpt>
      <trkpt lat="45.48361" lon="6.9107">
        <ele>2331.33</ele>
        <time>2011-06-26T09:23:54Z</time>
      </trkpt>
      <trkpt lat="45.48359" lon="6.91069">
        <ele>2331.33</ele>
        <time>2011-06-26T09:23:57Z</time>
      </trkpt>
      <trkpt lat="45.48351" lon="6.91067">
        <ele>2334.7</ele>
        <time>2011-06-26T09:24:05Z</time>
      </trkpt>
      <trkpt lat="45.48346" lon="6.91064">
        <ele>2334.22</ele>
        <time>2011-06-26T09:24:10Z</time>
      </trkpt>
      <trkpt lat="45.48343" lon="6.91057">
        <ele>2335.18</ele>
        <time>2011-06-26T09:24:16Z</time>
      </trkpt>
      <trkpt lat="45.48342" lon="6.91039">
        <ele>2338.54</ele>
        <time>2011-06-26T09:24:30Z</time>
      </trkpt>
      <trkpt lat="45.48343" lon="6.91037">
        <ele>2339.51</ele>
        <time>2011-06-26T09:24:32Z</time>
      </trkpt>
      <trkpt lat="45.48352" lon="6.91013">
        <ele>2343.35</ele>
        <time>2011-06-26T09:24:48Z</time>
      </trkpt>
      <trkpt lat="45.48365" lon="6.90992">
        <ele>2345.27</ele>
        <time>2011-06-26T09:25:03Z</time>
      </trkpt>
      <trkpt lat="45.48368" lon="6.90985">
        <ele>2347.68</ele>
        <time>2011-06-26T09:25:08Z</time>
      </trkpt>
      <trkpt lat="45.48372" lon="6.90965">
        <ele>2350.56</ele>
        <time>2011-06-26T09:25:23Z</time>
      </trkpt>
      <trkpt lat="45.48376" lon="6.90942">
        <ele>2354.41</ele>
        <time>2011-06-26T09:25:38Z</time>
      </trkpt>
      <trkpt lat="45.48382" lon="6.90916">
        <ele>2357.29</ele>
        <time>2011-06-26T09:25:54Z</time>
      </trkpt>
      <trkpt lat="45.48386" lon="6.9089">
        <ele>2360.17</ele>
        <time>2011-06-26T09:26:10Z</time>
      </trkpt>
      <trkpt lat="45.48389" lon="6.9086">
        <ele>2363.54</ele>
        <time>2011-06-26T09:26:27Z</time>
      </trkpt>
      <trkpt lat="45.48388" lon="6.90853">
        <ele>2364.02</ele>
        <time>2011-06-26T09:26:31Z</time>
      </trkpt>
      <trkpt lat="45.48388" lon="6.90831">
        <ele>2364.98</ele>
        <time>2011-06-26T09:26:46Z</time>
      </trkpt>
      <trkpt lat="45.48388" lon="6.90829">
        <ele>2365.94</ele>
        <time>2011-06-26T09:26:57Z</time>
      </trkpt>
      <trkpt lat="45.48384" lon="6.90812">
        <ele>2366.9</ele>
        <time>2011-06-26T09:27:10Z</time>
      </trkpt>
      <trkpt lat="45.48381" lon="6.90802">
        <ele>2370.27</ele>
        <time>2011-06-26T09:27:18Z</time>
      </trkpt>
      <trkpt lat="45.48381" lon="6.90801">
        <ele>2370.27</ele>
        <time>2011-06-26T09:27:19Z</time>
      </trkpt>
      <trkpt lat="45.48378" lon="6.90788">
        <ele>2371.23</ele>
        <time>2011-06-26T09:27:30Z</time>
      </trkpt>
      <trkpt lat="45.48378" lon="6.90787">
        <ele>2370.75</ele>
        <time>2011-06-26T09:27:31Z</time>
      </trkpt>
      <trkpt lat="45.4837" lon="6.90773">
        <ele>2374.11</ele>
        <time>2011-06-26T09:27:44Z</time>
      </trkpt>
      <trkpt lat="45.4836" lon="6.90759">
        <ele>2373.63</ele>
        <time>2011-06-26T09:27:56Z</time>
      </trkpt>
      <trkpt lat="45.48353" lon="6.90747">
        <ele>2377</ele>
        <time>2011-06-26T09:28:06Z</time>
      </trkpt>
      <trkpt lat="45.48347" lon="6.90738">
        <ele>2379.4</ele>
        <time>2011-06-26T09:28:14Z</time>
      </trkpt>
      <trkpt lat="45.48344" lon="6.90734">
        <ele>2378.92</ele>
        <time>2011-06-26T09:28:18Z</time>
      </trkpt>
      <trkpt lat="45.48341" lon="6.9073">
        <ele>2379.88</ele>
        <time>2011-06-26T09:28:22Z</time>
      </trkpt>
      <trkpt lat="45.48337" lon="6.90724">
        <ele>2380.36</ele>
        <time>2011-06-26T09:28:28Z</time>
      </trkpt>
      <trkpt lat="45.48328" lon="6.90711">
        <ele>2383.73</ele>
        <time>2011-06-26T09:28:41Z</time>
      </trkpt>
      <trkpt lat="45.48327" lon="6.9071">
        <ele>2383.73</ele>
        <time>2011-06-26T09:28:43Z</time>
      </trkpt>
      <trkpt lat="45.48324" lon="6.90709">
        <ele>2385.17</ele>
        <time>2011-06-26T09:28:47Z</time>
      </trkpt>
      <trkpt lat="45.48314" lon="6.90703">
        <ele>2387.09</ele>
        <time>2011-06-26T09:28:59Z</time>
      </trkpt>
      <trkpt lat="45.48308" lon="6.90703">
        <ele>2388.05</ele>
        <time>2011-06-26T09:29:06Z</time>
      </trkpt>
      <trkpt lat="45.48304" lon="6.90704">
        <ele>2389.49</ele>
        <time>2011-06-26T09:29:10Z</time>
      </trkpt>
      <trkpt lat="45.48297" lon="6.90704">
        <ele>2390.94</ele>
        <time>2011-06-26T09:29:19Z</time>
      </trkpt>
      <trkpt lat="45.48296" lon="6.90705">
        <ele>2391.42</ele>
        <time>2011-06-26T09:29:21Z</time>
      </trkpt>
      <trkpt lat="45.4829" lon="6.90703">
        <ele>2395.74</ele>
        <time>2011-06-26T09:29:31Z</time>
      </trkpt>
      <trkpt lat="45.4829" lon="6.90702">
        <ele>2391.42</ele>
        <time>2011-06-26T09:29:32Z</time>
      </trkpt>
      <trkpt lat="45.48289" lon="6.90701">
        <ele>2392.38</ele>
        <time>2011-06-26T09:29:49Z</time>
      </trkpt>
    </trkseg>
  </trk>
</gpx>